createdAt,value
2022-10-19T00:01:13.544Z,86.29
2022-10-19T00:03:41.129Z,86.67
2022-10-19T00:06:28.945Z,86.70
2022-10-19T00:08:58.521Z,86.32
2022-10-19T00:11:26.226Z,86.86
2022-10-19T00:13:54.843Z,87.17
2022-10-19T00:16:23.131Z,87.80
2022-10-19T00:18:49.891Z,87.77
2022-10-19T00:21:18.838Z,87.97
2022-10-19T00:23:45.934Z,87.46
2022-10-19T00:26:13.956Z,87.34
2022-10-19T00:28:41.306Z,88.07
2022-10-19T00:31:14.153Z,87.92
2022-10-19T00:33:49.559Z,87.80
2022-10-19T00:36:16.375Z,87.52
2022-10-19T00:38:43.395Z,87.78
2022-10-19T00:41:10.430Z,87.63
2022-10-19T00:43:54.660Z,87.61
2022-10-19T00:46:22.173Z,88.70
2022-10-19T00:51:39.535Z,88.50
2022-10-19T00:54:07.741Z,87.72
2022-10-19T00:56:35.646Z,87.32
2022-10-19T00:59:05.907Z,87.63
2022-10-19T01:01:34.159Z,87.96
2022-10-19T01:04:01.972Z,87.89
2022-10-19T01:06:32.231Z,87.98
2022-10-19T01:08:58.948Z,88.00
2022-10-19T01:11:54.998Z,88.28
2022-10-19T01:14:21.747Z,88.22
2022-10-19T01:16:56.604Z,88.34
2022-10-19T01:20:00.226Z,88.58
2022-10-19T01:22:48.360Z,88.66
2022-10-19T01:25:33.660Z,88.97
2022-10-19T01:28:00.378Z,89.83
2022-10-19T01:30:50.908Z,89.72
2022-10-19T01:33:43.359Z,89.60
2022-10-19T01:36:37.511Z,89.70
2022-10-19T01:39:30.399Z,89.71
2022-10-19T01:42:02.974Z,89.79
2022-10-19T01:44:40.857Z,89.64
2022-10-19T01:47:15.904Z,89.52
2022-10-19T01:49:49.749Z,89.61
2022-10-19T01:52:20.880Z,89.83
2022-10-19T01:54:54.062Z,90.34
2022-10-19T01:57:28.372Z,90.06
2022-10-19T01:59:57.476Z,90.10
2022-10-19T02:02:27.143Z,90.12
2022-10-19T02:04:57.586Z,90.40
2022-10-19T02:07:25.487Z,90.20
2022-10-19T02:09:52.291Z,90.57
2022-10-19T02:12:20.294Z,90.26
2022-10-19T02:14:52.309Z,90.02
2022-10-19T02:17:27.503Z,90.13
2022-10-19T02:19:55.390Z,90.43
2022-10-19T02:22:22.379Z,90.24
2022-10-19T02:24:49.155Z,90.50
2022-10-19T02:27:16.450Z,90.28
2022-10-19T02:29:43.512Z,90.07
2022-10-19T02:32:11.348Z,90.06
2022-10-19T02:34:39.598Z,90.56
2022-10-19T02:37:07.312Z,90.76
2022-10-19T02:39:34.343Z,90.56
2022-10-19T02:42:07.203Z,90.23
2022-10-19T02:44:36.665Z,90.54
2022-10-19T02:47:10.856Z,90.54
2022-10-19T02:49:38.989Z,90.78
2022-10-19T02:52:08.692Z,91.07
2022-10-19T02:54:36.228Z,91.40
2022-10-19T02:57:09.978Z,91.24
2022-10-19T02:59:36.706Z,91.33
2022-10-19T03:02:03.457Z,91.22
2022-10-19T03:04:30.203Z,91.21
2022-10-19T03:06:56.966Z,91.59
2022-10-19T03:09:23.782Z,91.75
2022-10-19T03:11:50.496Z,91.44
2022-10-19T03:14:17.222Z,91.55
2022-10-19T03:16:44.026Z,91.55
2022-10-19T03:19:10.773Z,91.68
2022-10-19T03:21:37.624Z,91.94
2022-10-19T03:24:04.599Z,92.10
2022-10-19T03:26:31.365Z,92.06
2022-10-19T03:28:58.134Z,92.01
2022-10-19T03:31:25.878Z,92.15
2022-10-19T03:33:52.930Z,92.68
2022-10-19T03:36:23.015Z,92.49
2022-10-19T03:38:52.062Z,92.48
2022-10-19T03:41:20.102Z,92.65
2022-10-19T03:43:47.208Z,92.71
2022-10-19T03:46:14.123Z,92.44
2022-10-19T03:48:40.891Z,92.05
2022-10-19T03:51:10.597Z,91.97
2022-10-19T03:53:37.693Z,92.67
2022-10-19T03:56:13.125Z,92.35
2022-10-19T03:58:41.403Z,92.07
2022-10-19T04:01:11.698Z,91.85
2022-10-19T04:03:39.010Z,91.85
2022-10-19T04:06:10.591Z,91.87
2022-10-19T04:08:37.381Z,92.29
2022-10-19T04:11:08.035Z,92.25
2022-10-19T04:13:39.464Z,91.93
2022-10-19T04:16:06.629Z,91.74
2022-10-19T04:18:33.822Z,91.59
2022-10-19T04:21:05.412Z,91.39
2022-10-19T04:23:36.310Z,91.41
2022-10-19T04:26:07.709Z,91.29
2022-10-19T04:28:35.119Z,91.26
2022-10-19T04:31:03.685Z,91.00
2022-10-19T04:33:30.507Z,90.95
2022-10-19T04:36:05.461Z,90.69
2022-10-19T04:38:32.931Z,90.82
2022-10-19T04:41:11.399Z,90.66
2022-10-19T04:43:38.310Z,90.70
2022-10-19T04:46:10.877Z,90.49
2022-10-19T04:48:39.048Z,90.47
2022-10-19T04:51:06.816Z,90.29
2022-10-19T04:53:34.768Z,90.17
2022-10-19T04:56:06.166Z,90.56
2022-10-19T04:58:32.903Z,90.25
2022-10-19T05:00:59.829Z,89.75
2022-10-19T05:03:26.594Z,89.54
2022-10-19T05:05:53.385Z,89.89
2022-10-19T05:08:20.091Z,90.25
2022-10-19T05:10:47.775Z,90.20
2022-10-19T05:13:14.933Z,90.73
2022-10-19T05:15:41.744Z,90.55
2022-10-19T05:18:08.475Z,90.32
2022-10-19T05:20:35.221Z,90.11
2022-10-19T05:23:06.225Z,90.14
2022-10-19T05:25:34.248Z,90.26
2022-10-19T05:28:01.014Z,90.71
2022-10-19T05:30:27.785Z,90.97
2022-10-19T05:32:54.527Z,90.87
2022-10-19T05:35:22.664Z,90.51
2022-10-19T05:37:54.578Z,90.55
2022-10-19T05:40:21.492Z,90.03
2022-10-19T05:42:48.202Z,89.86
2022-10-19T05:45:15.016Z,90.46
2022-10-19T05:47:41.766Z,90.68
2022-10-19T05:50:08.780Z,90.62
2022-10-19T05:52:35.502Z,90.65
2022-10-19T05:55:02.269Z,90.92
2022-10-19T05:57:29.021Z,91.28
2022-10-19T05:59:58.545Z,91.43
2022-10-19T06:02:25.304Z,91.49
2022-10-19T06:04:52.145Z,91.60
2022-10-19T06:07:18.900Z,91.33
2022-10-19T06:09:46.269Z,90.99
2022-10-19T06:12:14.841Z,91.11
2022-10-19T06:14:43.250Z,90.83
2022-10-19T06:17:10.916Z,91.04
2022-10-19T06:19:37.889Z,90.85
2022-10-19T06:22:04.687Z,91.04
2022-10-19T06:24:31.721Z,90.94
2022-10-19T06:27:09.894Z,90.79
2022-10-19T06:29:36.650Z,91.10
2022-10-19T06:32:03.483Z,91.27
2022-10-19T06:34:30.388Z,90.87
2022-10-19T06:37:03.762Z,91.02
2022-10-19T06:39:30.615Z,90.86
2022-10-19T06:41:57.364Z,91.04
2022-10-19T06:44:24.095Z,91.32
2022-10-19T06:46:50.805Z,91.39
2022-10-19T06:49:17.778Z,91.61
2022-10-19T06:51:44.605Z,91.45
2022-10-19T06:54:11.803Z,91.15
2022-10-19T06:56:39.080Z,91.14
2022-10-19T06:59:06.086Z,91.29
2022-10-19T07:01:32.962Z,91.22
2022-10-19T07:03:59.759Z,91.37
2022-10-19T07:06:28.254Z,91.74
2022-10-19T07:08:55.018Z,91.71
2022-10-19T07:11:22.789Z,91.65
2022-10-19T07:13:50.228Z,91.50
2022-10-19T07:16:21.262Z,91.39
2022-10-19T07:18:50.109Z,91.77
2022-10-19T07:21:17.721Z,91.84
2022-10-19T07:23:46.228Z,91.72
2022-10-19T07:26:18.950Z,91.60
2022-10-19T07:28:47.763Z,91.55
2022-10-19T07:31:23.439Z,90.95
2022-10-19T07:33:57.932Z,91.24
2022-10-19T07:36:25.832Z,91.33
2022-10-19T07:38:52.765Z,91.18
2022-10-19T07:41:22.068Z,91.28
2022-10-19T07:43:49.749Z,91.07
2022-10-19T07:46:19.604Z,91.22
2022-10-19T07:48:47.032Z,91.44
2022-10-19T07:51:16.274Z,90.88
2022-10-19T07:53:43.875Z,91.13
2022-10-19T07:56:15.560Z,91.20
2022-10-19T07:58:42.975Z,90.67
2022-10-19T08:01:15.547Z,91.15
2022-10-19T08:04:42.753Z,90.43
2022-10-19T08:06:29.515Z,90.28
2022-10-19T08:08:56.509Z,90.40
2022-10-19T08:11:24.814Z,89.84
2022-10-19T08:13:52.545Z,89.20
2022-10-19T08:16:41.547Z,89.26
2022-10-19T08:19:10.611Z,89.44
2022-10-19T08:21:38.981Z,88.62
2022-10-19T08:24:06.700Z,88.13
2022-10-19T08:26:35.151Z,88.64
2022-10-19T08:29:03.456Z,88.33
2022-10-19T08:31:30.605Z,88.40
2022-10-19T08:33:57.820Z,88.08
2022-10-19T08:36:26.200Z,87.88
2022-10-19T08:38:52.959Z,87.87
2022-10-19T08:41:33.089Z,88.14
2022-10-19T08:44:13.718Z,88.13
2022-10-19T08:46:43.301Z,87.75
2022-10-19T08:49:16.056Z,87.98
2022-10-19T08:51:43.700Z,87.83
2022-10-19T08:54:16.842Z,87.46
2022-10-19T08:57:18.900Z,87.40
2022-10-19T09:00:03.973Z,88.00
2022-10-19T09:02:39.784Z,88.12
2022-10-19T09:05:41.379Z,87.87
2022-10-19T09:08:15.307Z,87.51
2022-10-19T09:10:49.130Z,87.29
2022-10-19T09:14:03.710Z,86.57
2022-10-19T09:16:27.793Z,86.37
2022-10-19T09:21:48.821Z,85.61
2022-10-19T09:24:33.124Z,86.01
2022-10-19T09:27:22.705Z,86.14
2022-10-19T09:30:02.733Z,85.73
2022-10-19T09:32:36.587Z,84.64
2022-10-19T09:35:14.066Z,84.72
2022-10-19T09:37:45.220Z,85.06
2022-10-19T09:40:18.865Z,85.04
2022-10-19T09:42:45.734Z,84.17
2022-10-19T09:45:39.713Z,84.40
2022-10-19T09:48:37.504Z,84.49
2022-10-19T09:51:12.424Z,84.83
2022-10-19T09:53:54.522Z,84.24
2022-10-19T09:56:26.936Z,84.54
2022-10-19T09:58:59.917Z,84.19
2022-10-19T10:01:42.996Z,84.54
2022-10-19T10:04:15.189Z,84.31
2022-10-19T10:06:44.402Z,84.13
2022-10-19T10:09:27.998Z,83.66
2022-10-19T10:11:59.338Z,83.09
2022-10-19T10:14:30.554Z,82.60
2022-10-19T10:17:16.372Z,82.28
2022-10-19T10:20:11.188Z,81.79
2022-10-19T10:22:38.072Z,81.80
2022-10-19T10:25:16.957Z,81.90
2022-10-19T10:27:55.165Z,82.08
2022-10-19T10:30:21.940Z,81.14
2022-10-19T10:32:53.199Z,81.80
2022-10-19T10:35:25.304Z,81.49
2022-10-19T10:37:53.093Z,81.29
2022-10-19T10:40:31.239Z,81.17
2022-10-19T10:43:18.365Z,80.80
2022-10-19T10:45:49.144Z,80.86
2022-10-19T10:48:28.733Z,80.76
2022-10-19T10:50:57.397Z,80.82
2022-10-19T10:53:35.915Z,80.63
2022-10-19T10:56:04.951Z,80.70
2022-10-19T10:59:26.432Z,79.92
2022-10-19T11:02:17.588Z,80.54
2022-10-19T11:04:52.417Z,80.12
2022-10-19T11:07:31.273Z,79.76
2022-10-19T11:10:02.868Z,80.03
2022-10-19T11:12:37.748Z,79.52
2022-10-19T11:15:13.570Z,79.79
2022-10-19T11:17:57.240Z,80.17
2022-10-19T11:20:27.924Z,79.94
2022-10-19T11:23:00.827Z,80.18
2022-10-19T11:25:44.494Z,79.88
2022-10-19T11:28:42.406Z,79.68
2022-10-19T11:31:35.542Z,79.93
2022-10-19T11:34:37.205Z,80.07
2022-10-19T11:37:11.286Z,79.87
2022-10-19T11:39:47.205Z,79.52
2022-10-19T11:42:31.707Z,79.08
2022-10-19T11:45:25.774Z,79.21
2022-10-19T11:48:14.385Z,78.91
2022-10-19T11:50:54.358Z,78.52
2022-10-19T11:53:49.226Z,78.05
2022-10-19T11:56:39.200Z,77.96
2022-10-19T11:59:45.473Z,77.57
2022-10-19T12:02:48.073Z,76.83
2022-10-19T12:05:28.110Z,77.23
2022-10-19T12:08:13.365Z,77.62
2022-10-19T12:10:48.227Z,77.51
2022-10-19T12:13:22.454Z,77.21
2022-10-19T12:15:55.581Z,77.40
2022-10-19T12:18:58.403Z,77.49
2022-10-19T12:21:38.368Z,77.21
2022-10-19T12:24:16.400Z,79.25
2022-10-19T12:26:45.654Z,79.51
2022-10-19T12:29:21.566Z,78.93
2022-10-19T12:31:50.326Z,76.79
2022-10-19T12:34:36.132Z,76.74
2022-10-19T12:37:26.510Z,75.63
2022-10-19T12:40:24.677Z,75.31
2022-10-19T12:43:14.389Z,76.04
2022-10-19T12:46:10.229Z,76.12
2022-10-19T12:48:39.422Z,75.99
2022-10-19T12:51:12.118Z,76.63
2022-10-19T12:53:48.993Z,76.44
2022-10-19T12:56:20.950Z,76.84
2022-10-19T12:58:59.917Z,76.56
2022-10-19T13:01:36.055Z,77.08
2022-10-19T13:04:08.030Z,76.57
2022-10-19T13:06:38.645Z,76.43
2022-10-19T13:09:08.429Z,76.89
2022-10-19T13:11:36.252Z,76.16
2022-10-19T13:14:06.429Z,76.26
2022-10-19T13:16:40.418Z,76.24
2022-10-19T13:19:13.301Z,76.47
2022-10-19T13:21:59.780Z,76.82
2022-10-19T13:24:26.614Z,76.87
2022-10-19T13:27:08.487Z,76.13
2022-10-19T13:29:38.993Z,76.87
2022-10-19T13:32:37.963Z,76.26
2022-10-19T13:35:31.766Z,75.85
2022-10-19T13:38:16.788Z,76.13
2022-10-19T13:40:49.782Z,77.31
2022-10-19T13:43:38.867Z,76.72
2022-10-19T13:46:11.524Z,76.18
2022-10-19T13:48:57.296Z,76.42
2022-10-19T13:51:42.201Z,75.85
2022-10-19T13:54:20.979Z,76.36
2022-10-19T13:56:50.685Z,75.77
2022-10-19T13:59:36.228Z,75.97
2022-10-19T14:02:31.332Z,76.11
2022-10-19T14:05:10.796Z,76.37
2022-10-19T14:08:03.160Z,76.31
2022-10-19T14:10:32.796Z,76.05
2022-10-19T14:13:07.047Z,76.46
2022-10-19T14:15:35.699Z,76.57
2022-10-19T14:18:05.809Z,77.01
2022-10-19T14:20:39.282Z,76.85
2022-10-19T14:23:20.454Z,77.35
2022-10-19T14:26:03.580Z,77.19
2022-10-19T14:28:31.888Z,77.12
2022-10-19T14:31:11.468Z,77.30
2022-10-19T14:33:41.203Z,77.27
2022-10-19T14:36:14.695Z,76.76
2022-10-19T14:38:46.660Z,76.99
2022-10-19T14:41:37.492Z,77.27
2022-10-19T14:44:35.638Z,77.50
2022-10-19T14:47:24.495Z,77.95
2022-10-19T14:49:51.556Z,78.07
2022-10-19T14:52:39.029Z,79.05
2022-10-19T14:55:16.905Z,78.57
2022-10-19T14:57:47.770Z,79.08
2022-10-19T15:00:19.493Z,79.22
2022-10-19T15:02:54.744Z,79.41
2022-10-19T15:05:26.172Z,80.15
2022-10-19T15:07:55.844Z,79.69
2022-10-19T15:10:32.323Z,79.68
2022-10-19T15:13:05.026Z,79.82
2022-10-19T15:15:34.550Z,79.49
2022-10-19T15:18:01.385Z,79.26
2022-10-19T15:20:28.265Z,79.42
2022-10-19T15:22:56.739Z,79.32
2022-10-19T15:25:25.333Z,79.76
2022-10-19T15:27:53.874Z,80.18
2022-10-19T15:30:27.589Z,80.33
2022-10-19T15:33:15.396Z,80.06
2022-10-19T15:35:44.716Z,80.28
2022-10-19T15:38:15.038Z,80.33
2022-10-19T15:40:43.980Z,80.37
2022-10-19T15:43:35.621Z,80.63
2022-10-19T15:46:22.233Z,80.55
2022-10-19T15:48:55.527Z,80.24
2022-10-19T15:51:25.194Z,80.52
2022-10-19T15:53:53.674Z,80.93
2022-10-19T15:56:22.231Z,81.21
2022-10-19T15:58:52.819Z,81.42
2022-10-19T16:01:26.486Z,81.16
2022-10-19T16:03:58.727Z,81.75
2022-10-19T16:06:28.546Z,81.63
2022-10-19T16:08:55.608Z,81.68
2022-10-19T16:11:23.373Z,81.68
2022-10-19T16:13:50.363Z,82.04
2022-10-19T16:16:30.002Z,82.44
2022-10-19T16:18:57.486Z,82.19
2022-10-19T16:21:32.207Z,82.05
2022-10-19T16:23:59.565Z,82.27
2022-10-19T16:26:26.819Z,82.09
2022-10-19T16:28:56.637Z,81.92
2022-10-19T16:31:24.093Z,82.10
2022-10-19T16:33:51.445Z,82.30
2022-10-19T16:36:20.425Z,82.68
2022-10-19T16:38:47.880Z,83.04
2022-10-19T16:41:15.310Z,82.94
2022-10-19T16:43:42.288Z,83.15
2022-10-19T16:46:09.376Z,83.06
2022-10-19T16:48:37.148Z,83.33
2022-10-19T16:51:15.470Z,82.97
2022-10-19T16:53:42.303Z,83.49
2022-10-19T16:56:12.681Z,83.50
2022-10-19T16:58:42.081Z,83.66
2022-10-19T17:01:19.083Z,83.16
2022-10-19T17:03:47.856Z,83.43
2022-10-19T17:06:16.189Z,83.77
2022-10-19T17:09:23.270Z,83.53
2022-10-19T17:11:33.183Z,83.86
2022-10-19T17:14:03.187Z,84.01
2022-10-19T17:16:32.308Z,84.09
2022-10-19T17:19:00.444Z,84.36
2022-10-19T17:21:32.906Z,84.13
2022-10-19T17:24:01.666Z,84.24
2022-10-19T17:26:31.153Z,84.63
2022-10-19T17:28:59.192Z,84.33
2022-10-19T17:31:26.880Z,84.33
2022-10-19T17:33:54.193Z,84.27
2022-10-19T17:36:25.491Z,84.17
2022-10-19T17:38:58.315Z,84.33
2022-10-19T17:41:25.751Z,84.12
2022-10-19T17:43:52.988Z,84.21
2022-10-19T17:46:28.279Z,84.38
2022-10-19T17:48:56.361Z,84.26
2022-10-19T17:51:27.531Z,84.70
2022-10-19T17:53:56.735Z,84.58
2022-10-19T17:56:23.925Z,84.67
2022-10-19T17:58:50.952Z,84.74
2022-10-19T18:01:21.372Z,84.88
2022-10-19T18:03:49.385Z,84.85
2022-10-19T18:06:20.869Z,84.90
2022-10-19T18:08:51.493Z,84.93
2022-10-19T18:14:16.660Z,85.05
2022-10-19T18:16:45.971Z,84.98
2022-10-19T18:19:15.195Z,85.13
2022-10-19T18:21:43.898Z,84.98
2022-10-19T18:24:19.548Z,85.14
2022-10-19T18:26:47.220Z,85.22
2022-10-19T18:29:18.027Z,85.15
2022-10-19T18:31:49.249Z,84.87
2022-10-19T18:34:16.289Z,84.93
2022-10-19T18:36:43.700Z,84.98
2022-10-19T18:39:11.995Z,85.10
2022-10-19T18:41:39.138Z,85.10
2022-10-19T18:44:07.076Z,85.48
2022-10-19T18:46:36.337Z,85.51
2022-10-19T18:49:06.904Z,85.55
2022-10-19T18:51:33.925Z,85.53
2022-10-19T18:54:00.719Z,85.68
2022-10-19T18:56:29.525Z,85.57
2022-10-19T18:58:57.470Z,86.00
2022-10-19T19:01:27.010Z,85.80
2022-10-19T19:03:56.313Z,85.89
2022-10-19T19:06:26.263Z,85.90
2022-10-19T19:09:01.202Z,86.01
2022-10-19T19:11:36.029Z,85.80
2022-10-19T19:14:22.044Z,86.16
2022-10-19T19:16:49.156Z,85.93
2022-10-19T19:19:18.190Z,85.86
2022-10-19T19:21:45.907Z,85.80
2022-10-19T19:24:18.054Z,85.88
2022-10-19T19:26:54.029Z,86.14
2022-10-19T19:29:22.300Z,86.48
2022-10-19T19:31:49.941Z,86.20
2022-10-19T19:34:17.352Z,86.02
2022-10-19T19:36:48.961Z,85.89
2022-10-19T19:39:18.920Z,85.91
2022-10-19T19:41:46.279Z,86.21
2022-10-19T19:44:13.049Z,86.80
2022-10-19T19:46:40.117Z,86.53
2022-10-19T19:49:07.334Z,86.51
2022-10-19T19:51:35.639Z,86.67
2022-10-19T19:54:03.631Z,86.78
2022-10-19T19:56:30.771Z,86.86
2022-10-19T19:59:00.015Z,87.04
2022-10-19T20:01:27.193Z,87.20
2022-10-19T20:03:54.475Z,87.04
2022-10-19T20:06:25.025Z,87.07
2022-10-19T20:08:53.334Z,87.05
2022-10-19T20:11:20.141Z,87.12
2022-10-19T20:13:47.123Z,87.47
2022-10-19T20:16:16.801Z,87.77
2022-10-19T20:18:49.886Z,87.49
2022-10-19T20:21:18.094Z,87.04
2022-10-19T20:23:46.837Z,87.25
2022-10-19T20:26:22.692Z,86.82
2022-10-19T20:28:50.176Z,86.93
2022-10-19T20:31:17.307Z,86.97
2022-10-19T20:33:45.120Z,87.09
2022-10-19T20:36:22.271Z,87.05
2022-10-19T20:38:56.932Z,87.40
2022-10-19T20:41:26.649Z,87.17
2022-10-19T20:43:54.432Z,87.07
2022-10-19T20:46:23.516Z,86.97
2022-10-19T20:48:51.409Z,86.88
2022-10-19T20:51:25.902Z,86.85
2022-10-19T20:53:57.623Z,86.75
2022-10-19T20:56:27.972Z,87.00
2022-10-19T20:59:00.246Z,87.09
2022-10-19T21:01:29.469Z,86.80
2022-10-19T21:03:58.441Z,86.81
2022-10-19T21:06:27.132Z,86.97
2022-10-19T21:08:54.227Z,87.16
2022-10-19T21:11:26.607Z,87.06
2022-10-19T21:13:55.286Z,87.29
2022-10-19T21:16:23.347Z,86.99
2022-10-19T21:18:50.925Z,87.20
2022-10-19T21:21:23.712Z,87.38
2022-10-19T21:23:51.726Z,87.09
2022-10-19T21:26:18.940Z,87.30
2022-10-19T21:28:53.421Z,87.58
2022-10-19T21:31:24.329Z,87.85
2022-10-19T21:33:52.284Z,87.98
2022-10-19T21:36:21.327Z,87.92
2022-10-19T21:38:48.978Z,87.95
2022-10-19T21:41:22.253Z,87.93
2022-10-19T21:43:52.637Z,88.07
2022-10-19T21:46:21.346Z,87.84
2022-10-19T21:48:48.644Z,87.78
2022-10-19T21:51:48.474Z,87.53
2022-10-19T21:54:18.687Z,87.65
2022-10-19T21:56:46.529Z,87.92
2022-10-19T21:59:13.457Z,88.37
2022-10-19T22:01:41.498Z,88.27
2022-10-19T22:04:16.840Z,88.12
2022-10-19T22:06:44.024Z,88.13
2022-10-19T22:09:15.280Z,88.90
2022-10-19T22:11:42.076Z,88.80
2022-10-19T22:14:11.664Z,89.11
2022-10-19T22:16:40.119Z,88.52
2022-10-19T22:19:06.894Z,88.37
2022-10-19T22:21:35.430Z,88.46
2022-10-19T22:24:07.230Z,88.32
2022-10-19T22:26:40.371Z,89.01
2022-10-19T22:29:07.966Z,89.10
2022-10-19T22:31:38.351Z,89.29
2022-10-19T22:34:09.517Z,88.86
2022-10-19T22:36:36.828Z,88.60
2022-10-19T22:39:04.876Z,88.58
2022-10-19T22:42:21.242Z,88.81
2022-10-19T22:44:47.953Z,88.95
2022-10-19T22:47:14.756Z,88.86
2022-10-19T22:49:41.565Z,88.64
2022-10-19T22:52:08.417Z,88.80
2022-10-19T22:54:35.283Z,88.87
2022-10-19T22:57:02.366Z,89.35
2022-10-19T22:59:29.091Z,89.41
2022-10-19T23:01:55.873Z,89.30
2022-10-19T23:04:22.627Z,89.36
2022-10-19T23:06:49.373Z,89.34
2022-10-19T23:09:16.079Z,89.58
2022-10-19T23:11:42.779Z,90.26
2022-10-19T23:14:09.697Z,90.01
2022-10-19T23:16:36.506Z,89.84
2022-10-19T23:19:03.256Z,89.92
2022-10-19T23:21:30.083Z,90.13
2022-10-19T23:23:56.780Z,90.35
2022-10-19T23:26:25.106Z,90.57
2022-10-19T23:29:19.975Z,90.44
2022-10-19T23:31:46.722Z,90.37
2022-10-19T23:34:13.679Z,90.55
2022-10-19T23:36:40.579Z,90.76
2022-10-19T23:39:07.884Z,91.00
2022-10-19T23:41:34.676Z,91.31
2022-10-19T23:44:01.412Z,91.32
2022-10-19T23:46:28.295Z,91.01
2022-10-19T23:48:55.110Z,91.29
2022-10-19T23:51:22.128Z,91.34
2022-10-19T23:53:51.141Z,91.34
2022-10-19T23:56:35.882Z,91.84
2022-10-19T23:59:02.967Z,91.94
